sensor_id;sensor_type;location;lat;lon;timestamp;P1;durP1;ratioP1;P2;durP2;ratioP2
11191;SDS011;5652;48.406;10.820;2022-12-29T00:01:26;3.40;;;2.10;;
11191;SDS011;5652;48.406;10.820;2022-12-29T00:03:53;3.03;;;1.90;;
11191;SDS011;5652;48.406;10.820;2022-12-29T00:06:20;2.80;;;1.70;;
11191;SDS011;5652;48.406;10.820;2022-12-29T00:08:47;3.80;;;1.80;;
11191;SDS011;5652;48.406;10.820;2022-12-29T00:11:16;2.67;;;1.75;;
11191;SDS011;5652;48.406;10.820;2022-12-29T00:13:44;3.63;;;1.90;;
11191;SDS011;5652;48.406;10.820;2022-12-29T00:16:29;3.60;;;1.90;;
11191;SDS011;5652;48.406;10.820;2022-12-29T00:18:56;3.88;;;2.13;;
11191;SDS011;5652;48.406;10.820;2022-12-29T00:21:24;2.70;;;1.85;;
11191;SDS011;5652;48.406;10.820;2022-12-29T00:24:09;3.53;;;2.07;;
11191;SDS011;5652;48.406;10.820;2022-12-29T00:26:58;3.15;;;1.95;;
11191;SDS011;5652;48.406;10.820;2022-12-29T00:29:43;2.80;;;2.00;;
11191;SDS011;5652;48.406;10.820;2022-12-29T00:32:27;2.67;;;1.92;;
11191;SDS011;5652;48.406;10.820;2022-12-29T00:35:15;3.33;;;1.63;;
11191;SDS011;5652;48.406;10.820;2022-12-29T00:37:43;2.47;;;1.70;;
11191;SDS011;5652;48.406;10.820;2022-12-29T00:40:45;2.50;;;1.40;;
11191;SDS011;5652;48.406;10.820;2022-12-29T00:43:31;2.33;;;1.27;;
11191;SDS011;5652;48.406;10.820;2022-12-29T00:46:12;2.85;;;1.20;;
11191;SDS011;5652;48.406;10.820;2022-12-29T00:48:39;2.67;;;1.75;;
11191;SDS011;5652;48.406;10.820;2022-12-29T00:51:24;2.30;;;1.60;;
11191;SDS011;5652;48.406;10.820;2022-12-29T00:53:51;1.98;;;1.30;;
11191;SDS011;5652;48.406;10.820;2022-12-29T00:56:18;2.35;;;1.55;;
11191;SDS011;5652;48.406;10.820;2022-12-29T00:58:47;1.90;;;1.50;;
11191;SDS011;5652;48.406;10.820;2022-12-29T01:01:14;3.30;;;1.63;;
11191;SDS011;5652;48.406;10.820;2022-12-29T01:03:41;2.28;;;1.55;;
11191;SDS011;5652;48.406;10.820;2022-12-29T01:06:09;1.80;;;1.55;;
11191;SDS011;5652;48.406;10.820;2022-12-29T01:08:37;2.17;;;1.50;;
11191;SDS011;5652;48.406;10.820;2022-12-29T01:11:05;2.03;;;1.60;;
11191;SDS011;5652;48.406;10.820;2022-12-29T01:13:32;3.53;;;2.08;;
11191;SDS011;5652;48.406;10.820;2022-12-29T01:16:00;3.15;;;1.90;;
11191;SDS011;5652;48.406;10.820;2022-12-29T01:18:28;3.08;;;1.50;;
11191;SDS011;5652;48.406;10.820;2022-12-29T01:20:58;2.20;;;1.40;;
11191;SDS011;5652;48.406;10.820;2022-12-29T01:23:26;2.55;;;1.40;;
11191;SDS011;5652;48.406;10.820;2022-12-29T01:25:53;2.38;;;1.67;;
11191;SDS011;5652;48.406;10.820;2022-12-29T01:28:20;2.30;;;1.30;;
11191;SDS011;5652;48.406;10.820;2022-12-29T01:30:47;6.43;;;3.03;;
11191;SDS011;5652;48.406;10.820;2022-12-29T01:33:15;7.28;;;3.45;;
11191;SDS011;5652;48.406;10.820;2022-12-29T01:35:42;2.50;;;1.60;;
11191;SDS011;5652;48.406;10.820;2022-12-29T01:38:10;2.22;;;1.65;;
11191;SDS011;5652;48.406;10.820;2022-12-29T01:40:42;2.63;;;1.60;;
11191;SDS011;5652;48.406;10.820;2022-12-29T01:43:10;2.03;;;1.30;;
11191;SDS011;5652;48.406;10.820;2022-12-29T01:45:38;2.23;;;1.53;;
11191;SDS011;5652;48.406;10.820;2022-12-29T01:48:08;2.45;;;1.48;;
11191;SDS011;5652;48.406;10.820;2022-12-29T01:50:38;2.40;;;1.67;;
11191;SDS011;5652;48.406;10.820;2022-12-29T01:53:07;2.65;;;1.67;;
11191;SDS011;5652;48.406;10.820;2022-12-29T01:55:36;1.73;;;1.30;;
11191;SDS011;5652;48.406;10.820;2022-12-29T01:58:04;3.00;;;1.55;;
11191;SDS011;5652;48.406;10.820;2022-12-29T02:00:32;2.17;;;1.40;;
11191;SDS011;5652;48.406;10.820;2022-12-29T02:02:59;1.75;;;1.40;;
11191;SDS011;5652;48.406;10.820;2022-12-29T02:05:27;2.78;;;1.65;;
11191;SDS011;5652;48.406;10.820;2022-12-29T02:07:57;7.75;;;3.70;;
11191;SDS011;5652;48.406;10.820;2022-12-29T02:10:25;4.63;;;2.25;;
11191;SDS011;5652;48.406;10.820;2022-12-29T02:12:52;3.30;;;1.30;;
11191;SDS011;5652;48.406;10.820;2022-12-29T02:15:20;6.97;;;2.60;;
11191;SDS011;5652;48.406;10.820;2022-12-29T02:17:59;6.20;;;3.15;;
11191;SDS011;5652;48.406;10.820;2022-12-29T02:20:37;9.75;;;3.50;;
11191;SDS011;5652;48.406;10.820;2022-12-29T02:26:01;3.20;;;1.80;;
11191;SDS011;5652;48.406;10.820;2022-12-29T02:28:53;2.92;;;1.60;;
11191;SDS011;5652;48.406;10.820;2022-12-29T02:31:27;2.15;;;1.60;;
11191;SDS011;5652;48.406;10.820;2022-12-29T02:34:00;4.88;;;2.42;;
11191;SDS011;5652;48.406;10.820;2022-12-29T02:36:29;2.13;;;1.55;;
11191;SDS011;5652;48.406;10.820;2022-12-29T02:39:02;3.92;;;2.00;;
11191;SDS011;5652;48.406;10.820;2022-12-29T02:41:32;2.67;;;1.80;;
11191;SDS011;5652;48.406;10.820;2022-12-29T02:44:01;2.67;;;1.50;;
11191;SDS011;5652;48.406;10.820;2022-12-29T02:46:33;2.03;;;1.20;;
11191;SDS011;5652;48.406;10.820;2022-12-29T02:49:12;1.77;;;1.33;;
11191;SDS011;5652;48.406;10.820;2022-12-29T02:51:43;2.22;;;1.40;;
11191;SDS011;5652;48.406;10.820;2022-12-29T02:54:10;1.52;;;1.20;;
11191;SDS011;5652;48.406;10.820;2022-12-29T02:56:55;1.93;;;1.40;;
11191;SDS011;5652;48.406;10.820;2022-12-29T02:59:22;1.83;;;1.33;;
11191;SDS011;5652;48.406;10.820;2022-12-29T03:02:03;1.80;;;1.50;;
11191;SDS011;5652;48.406;10.820;2022-12-29T03:07:28;1.60;;;1.20;;
11191;SDS011;5652;48.406;10.820;2022-12-29T03:09:57;3.08;;;1.23;;
11191;SDS011;5652;48.406;10.820;2022-12-29T03:12:29;2.80;;;1.60;;
11191;SDS011;5652;48.406;10.820;2022-12-29T03:15:15;2.60;;;1.30;;
11191;SDS011;5652;48.406;10.820;2022-12-29T03:18:04;1.83;;;1.50;;
11191;SDS011;5652;48.406;10.820;2022-12-29T03:20:35;2.10;;;1.50;;
11191;SDS011;5652;48.406;10.820;2022-12-29T03:23:05;2.70;;;1.60;;
11191;SDS011;5652;48.406;10.820;2022-12-29T03:25:33;1.92;;;1.50;;
11191;SDS011;5652;48.406;10.820;2022-12-29T03:28:02;4.10;;;1.50;;
11191;SDS011;5652;48.406;10.820;2022-12-29T03:30:30;2.90;;;1.80;;
11191;SDS011;5652;48.406;10.820;2022-12-29T03:32:59;2.30;;;1.20;;
11191;SDS011;5652;48.406;10.820;2022-12-29T03:35:29;1.50;;;1.20;;
11191;SDS011;5652;48.406;10.820;2022-12-29T03:37:58;3.15;;;1.20;;
11191;SDS011;5652;48.406;10.820;2022-12-29T03:40:26;1.77;;;1.20;;
11191;SDS011;5652;48.406;10.820;2022-12-29T03:42:54;1.95;;;1.50;;
11191;SDS011;5652;48.406;10.820;2022-12-29T03:45:21;3.35;;;1.67;;
11191;SDS011;5652;48.406;10.820;2022-12-29T03:47:48;1.92;;;1.40;;
11191;SDS011;5652;48.406;10.820;2022-12-29T03:50:15;4.07;;;1.65;;
11191;SDS011;5652;48.406;10.820;2022-12-29T03:52:44;3.60;;;1.60;;
11191;SDS011;5652;48.406;10.820;2022-12-29T03:55:11;2.55;;;1.40;;
11191;SDS011;5652;48.406;10.820;2022-12-29T03:57:38;1.27;;;1.10;;
11191;SDS011;5652;48.406;10.820;2022-12-29T04:00:06;2.08;;;1.20;;
11191;SDS011;5652;48.406;10.820;2022-12-29T04:02:36;1.40;;;1.10;;
11191;SDS011;5652;48.406;10.820;2022-12-29T04:05:03;1.70;;;1.10;;
11191;SDS011;5652;48.406;10.820;2022-12-29T04:07:30;1.05;;;0.95;;
11191;SDS011;5652;48.406;10.820;2022-12-29T04:09:59;1.95;;;0.90;;
11191;SDS011;5652;48.406;10.820;2022-12-29T04:12:26;3.00;;;1.05;;
11191;SDS011;5652;48.406;10.820;2022-12-29T04:14:53;1.70;;;1.08;;
11191;SDS011;5652;48.406;10.820;2022-12-29T04:17:20;1.88;;;1.00;;
11191;SDS011;5652;48.406;10.820;2022-12-29T04:19:48;1.00;;;0.90;;
11191;SDS011;5652;48.406;10.820;2022-12-29T04:22:15;1.65;;;1.05;;
11191;SDS011;5652;48.406;10.820;2022-12-29T04:24:42;1.00;;;0.90;;
11191;SDS011;5652;48.406;10.820;2022-12-29T04:27:10;1.42;;;0.90;;
11191;SDS011;5652;48.406;10.820;2022-12-29T04:29:37;2.10;;;0.93;;
11191;SDS011;5652;48.406;10.820;2022-12-29T04:32:04;1.77;;;1.30;;
11191;SDS011;5652;48.406;10.820;2022-12-29T04:34:31;1.60;;;0.90;;
11191;SDS011;5652;48.406;10.820;2022-12-29T04:36:59;1.40;;;0.90;;
11191;SDS011;5652;48.406;10.820;2022-12-29T04:39:26;0.90;;;0.90;;
11191;SDS011;5652;48.406;10.820;2022-12-29T04:41:53;0.80;;;0.80;;
11191;SDS011;5652;48.406;10.820;2022-12-29T04:44:22;1.00;;;0.80;;
11191;SDS011;5652;48.406;10.820;2022-12-29T04:46:49;0.82;;;0.73;;
11191;SDS011;5652;48.406;10.820;2022-12-29T04:49:16;0.65;;;0.65;;
11191;SDS011;5652;48.406;10.820;2022-12-29T04:51:43;2.33;;;1.20;;
11191;SDS011;5652;48.406;10.820;2022-12-29T04:54:13;1.83;;;1.10;;
11191;SDS011;5652;48.406;10.820;2022-12-29T04:56:40;1.60;;;1.40;;
11191;SDS011;5652;48.406;10.820;2022-12-29T04:59:07;0.97;;;0.90;;
11191;SDS011;5652;48.406;10.820;2022-12-29T05:01:35;1.70;;;1.00;;
11191;SDS011;5652;48.406;10.820;2022-12-29T05:04:03;1.30;;;0.97;;
11191;SDS011;5652;48.406;10.820;2022-12-29T05:06:30;1.33;;;1.10;;
11191;SDS011;5652;48.406;10.820;2022-12-29T05:08:57;1.77;;;0.90;;
11191;SDS011;5652;48.406;10.820;2022-12-29T05:11:24;1.20;;;1.10;;
11191;SDS011;5652;48.406;10.820;2022-12-29T05:13:51;1.40;;;1.00;;
11191;SDS011;5652;48.406;10.820;2022-12-29T05:16:18;1.85;;;1.20;;
11191;SDS011;5652;48.406;10.820;2022-12-29T05:18:46;2.10;;;1.00;;
11191;SDS011;5652;48.406;10.820;2022-12-29T05:21:13;1.45;;;1.02;;
11191;SDS011;5652;48.406;10.820;2022-12-29T05:23:41;1.70;;;1.40;;
11191;SDS011;5652;48.406;10.820;2022-12-29T05:26:08;1.13;;;1.02;;
11191;SDS011;5652;48.406;10.820;2022-12-29T05:28:35;2.60;;;1.20;;
11191;SDS011;5652;48.406;10.820;2022-12-29T05:31:02;1.45;;;1.10;;
11191;SDS011;5652;48.406;10.820;2022-12-29T05:33:29;1.30;;;1.00;;
11191;SDS011;5652;48.406;10.820;2022-12-29T05:35:58;1.30;;;1.20;;
11191;SDS011;5652;48.406;10.820;2022-12-29T05:38:29;1.73;;;1.20;;
11191;SDS011;5652;48.406;10.820;2022-12-29T05:40:56;2.42;;;1.40;;
11191;SDS011;5652;48.406;10.820;2022-12-29T05:43:24;1.92;;;1.38;;
11191;SDS011;5652;48.406;10.820;2022-12-29T05:45:51;1.83;;;1.05;;
11191;SDS011;5652;48.406;10.820;2022-12-29T05:48:18;1.67;;;1.23;;
11191;SDS011;5652;48.406;10.820;2022-12-29T05:50:46;2.22;;;1.02;;
11191;SDS011;5652;48.406;10.820;2022-12-29T05:53:15;1.40;;;1.05;;
11191;SDS011;5652;48.406;10.820;2022-12-29T05:55:42;1.48;;;1.10;;
11191;SDS011;5652;48.406;10.820;2022-12-29T05:58:09;1.23;;;1.05;;
11191;SDS011;5652;48.406;10.820;2022-12-29T06:00:36;2.65;;;1.20;;
11191;SDS011;5652;48.406;10.820;2022-12-29T06:03:04;1.50;;;1.10;;
11191;SDS011;5652;48.406;10.820;2022-12-29T06:05:31;2.15;;;1.20;;
11191;SDS011;5652;48.406;10.820;2022-12-29T06:07:58;2.13;;;1.13;;
11191;SDS011;5652;48.406;10.820;2022-12-29T06:10:26;2.60;;;1.27;;
11191;SDS011;5652;48.406;10.820;2022-12-29T06:12:53;1.42;;;1.10;;
11191;SDS011;5652;48.406;10.820;2022-12-29T06:15:20;1.33;;;1.02;;
11191;SDS011;5652;48.406;10.820;2022-12-29T06:17:47;2.92;;;1.50;;
11191;SDS011;5652;48.406;10.820;2022-12-29T06:20:15;2.17;;;1.10;;
11191;SDS011;5652;48.406;10.820;2022-12-29T06:22:42;2.03;;;1.10;;
11191;SDS011;5652;48.406;10.820;2022-12-29T06:25:10;1.25;;;1.13;;
11191;SDS011;5652;48.406;10.820;2022-12-29T06:27:38;2.25;;;1.20;;
11191;SDS011;5652;48.406;10.820;2022-12-29T06:30:06;1.70;;;0.90;;
11191;SDS011;5652;48.406;10.820;2022-12-29T06:32:34;1.52;;;1.02;;
11191;SDS011;5652;48.406;10.820;2022-12-29T06:35:01;1.85;;;1.13;;
11191;SDS011;5652;48.406;10.820;2022-12-29T06:37:28;2.20;;;1.20;;
11191;SDS011;5652;48.406;10.820;2022-12-29T06:39:55;1.35;;;1.10;;
11191;SDS011;5652;48.406;10.820;2022-12-29T06:42:22;0.95;;;0.88;;
11191;SDS011;5652;48.406;10.820;2022-12-29T06:44:51;0.88;;;0.80;;
11191;SDS011;5652;48.406;10.820;2022-12-29T06:47:18;1.48;;;1.38;;
11191;SDS011;5652;48.406;10.820;2022-12-29T06:49:45;1.55;;;1.00;;
11191;SDS011;5652;48.406;10.820;2022-12-29T06:52:12;0.80;;;0.80;;
11191;SDS011;5652;48.406;10.820;2022-12-29T06:54:39;1.40;;;1.00;;
11191;SDS011;5652;48.406;10.820;2022-12-29T06:57:06;1.43;;;1.00;;
11191;SDS011;5652;48.406;10.820;2022-12-29T06:59:33;0.70;;;0.70;;
11191;SDS011;5652;48.406;10.820;2022-12-29T07:02:02;0.98;;;0.98;;
11191;SDS011;5652;48.406;10.820;2022-12-29T07:04:29;1.65;;;1.05;;
11191;SDS011;5652;48.406;10.820;2022-12-29T07:06:56;1.17;;;0.82;;
11191;SDS011;5652;48.406;10.820;2022-12-29T07:09:23;2.75;;;1.08;;
11191;SDS011;5652;48.406;10.820;2022-12-29T07:11:50;1.93;;;1.50;;
11191;SDS011;5652;48.406;10.820;2022-12-29T07:14:18;1.60;;;0.90;;
11191;SDS011;5652;48.406;10.820;2022-12-29T07:16:45;1.83;;;1.38;;
11191;SDS011;5652;48.406;10.820;2022-12-29T07:19:13;1.40;;;1.30;;
11191;SDS011;5652;48.406;10.820;2022-12-29T07:21:40;3.08;;;1.20;;
11191;SDS011;5652;48.406;10.820;2022-12-29T07:24:07;1.27;;;1.17;;
11191;SDS011;5652;48.406;10.820;2022-12-29T07:26:35;3.40;;;1.60;;
11191;SDS011;5652;48.406;10.820;2022-12-29T07:29:02;1.95;;;1.10;;
11191;SDS011;5652;48.406;10.820;2022-12-29T07:31:29;2.65;;;1.25;;
11191;SDS011;5652;48.406;10.820;2022-12-29T07:33:56;1.60;;;1.20;;
11191;SDS011;5652;48.406;10.820;2022-12-29T07:36:25;1.63;;;1.38;;
11191;SDS011;5652;48.406;10.820;2022-12-29T07:38:52;3.20;;;1.50;;
11191;SDS011;5652;48.406;10.820;2022-12-29T07:41:19;2.88;;;1.33;;
11191;SDS011;5652;48.406;10.820;2022-12-29T07:43:46;3.15;;;1.75;;
11191;SDS011;5652;48.406;10.820;2022-12-29T07:46:13;3.10;;;1.40;;
11191;SDS011;5652;48.406;10.820;2022-12-29T07:48:41;2.15;;;1.30;;
11191;SDS011;5652;48.406;10.820;2022-12-29T07:51:08;1.40;;;1.00;;
11191;SDS011;5652;48.406;10.820;2022-12-29T07:53:36;2.20;;;1.60;;
11191;SDS011;5652;48.406;10.820;2022-12-29T07:56:03;1.80;;;1.35;;
11191;SDS011;5652;48.406;10.820;2022-12-29T07:58:31;2.30;;;1.38;;
11191;SDS011;5652;48.406;10.820;2022-12-29T08:00:58;2.37;;;1.40;;
11191;SDS011;5652;48.406;10.820;2022-12-29T08:03:26;2.47;;;1.50;;
11191;SDS011;5652;48.406;10.820;2022-12-29T08:05:53;3.17;;;1.20;;
11191;SDS011;5652;48.406;10.820;2022-12-29T08:08:20;1.50;;;1.08;;
11191;SDS011;5652;48.406;10.820;2022-12-29T08:10:48;3.33;;;1.50;;
11191;SDS011;5652;48.406;10.820;2022-12-29T08:13:15;3.10;;;1.60;;
11191;SDS011;5652;48.406;10.820;2022-12-29T08:15:42;2.95;;;1.50;;
11191;SDS011;5652;48.406;10.820;2022-12-29T08:18:09;2.03;;;1.30;;
11191;SDS011;5652;48.406;10.820;2022-12-29T08:20:37;1.50;;;1.37;;
11191;SDS011;5652;48.406;10.820;2022-12-29T08:23:04;2.75;;;1.20;;
11191;SDS011;5652;48.406;10.820;2022-12-29T08:25:31;2.05;;;1.48;;
11191;SDS011;5652;48.406;10.820;2022-12-29T08:27:59;1.77;;;1.30;;
11191;SDS011;5652;48.406;10.820;2022-12-29T08:30:26;2.88;;;1.30;;
11191;SDS011;5652;48.406;10.820;2022-12-29T08:32:53;2.47;;;1.60;;
11191;SDS011;5652;48.406;10.820;2022-12-29T08:35:20;3.10;;;1.40;;
11191;SDS011;5652;48.406;10.820;2022-12-29T08:37:47;3.20;;;1.40;;
11191;SDS011;5652;48.406;10.820;2022-12-29T08:40:14;3.40;;;1.60;;
11191;SDS011;5652;48.406;10.820;2022-12-29T08:42:42;2.13;;;1.58;;
11191;SDS011;5652;48.406;10.820;2022-12-29T08:45:10;3.42;;;1.75;;
11191;SDS011;5652;48.406;10.820;2022-12-29T08:47:37;2.63;;;1.65;;
11191;SDS011;5652;48.406;10.820;2022-12-29T08:50:05;2.97;;;1.50;;
11191;SDS011;5652;48.406;10.820;2022-12-29T08:52:32;3.15;;;1.48;;
11191;SDS011;5652;48.406;10.820;2022-12-29T08:54:59;2.83;;;1.77;;
11191;SDS011;5652;48.406;10.820;2022-12-29T08:57:26;3.03;;;1.60;;
11191;SDS011;5652;48.406;10.820;2022-12-29T08:59:53;2.75;;;1.40;;
11191;SDS011;5652;48.406;10.820;2022-12-29T09:02:21;2.90;;;1.60;;
11191;SDS011;5652;48.406;10.820;2022-12-29T09:04:50;2.50;;;1.60;;
11191;SDS011;5652;48.406;10.820;2022-12-29T09:07:17;2.42;;;1.70;;
11191;SDS011;5652;48.406;10.820;2022-12-29T09:09:44;1.65;;;1.38;;
11191;SDS011;5652;48.406;10.820;2022-12-29T09:12:11;3.10;;;1.60;;
11191;SDS011;5652;48.406;10.820;2022-12-29T09:14:38;2.67;;;1.25;;
11191;SDS011;5652;48.406;10.820;2022-12-29T09:17:05;3.65;;;1.40;;
11191;SDS011;5652;48.406;10.820;2022-12-29T09:19:51;1.25;;;1.02;;
11191;SDS011;5652;48.406;10.820;2022-12-29T09:22:18;2.27;;;1.37;;
11191;SDS011;5652;48.406;10.820;2022-12-29T09:24:45;0.73;;;0.73;;
11191;SDS011;5652;48.406;10.820;2022-12-29T09:27:13;3.38;;;1.38;;
11191;SDS011;5652;48.406;10.820;2022-12-29T09:29:40;1.67;;;1.05;;
11191;SDS011;5652;48.406;10.820;2022-12-29T09:32:07;3.15;;;1.60;;
11191;SDS011;5652;48.406;10.820;2022-12-29T09:34:34;2.28;;;1.27;;
11191;SDS011;5652;48.406;10.820;2022-12-29T09:37:02;3.20;;;1.20;;
11191;SDS011;5652;48.406;10.820;2022-12-29T09:39:29;1.77;;;1.02;;
11191;SDS011;5652;48.406;10.820;2022-12-29T09:41:58;2.67;;;1.27;;
11191;SDS011;5652;48.406;10.820;2022-12-29T09:44:30;1.00;;;0.90;;
11191;SDS011;5652;48.406;10.820;2022-12-29T09:47:02;1.92;;;1.30;;
11191;SDS011;5652;48.406;10.820;2022-12-29T09:49:29;1.60;;;1.20;;
11191;SDS011;5652;48.406;10.820;2022-12-29T09:52:02;1.70;;;1.20;;
11191;SDS011;5652;48.406;10.820;2022-12-29T09:54:35;1.83;;;1.33;;
11191;SDS011;5652;48.406;10.820;2022-12-29T09:57:04;1.33;;;1.00;;
11191;SDS011;5652;48.406;10.820;2022-12-29T09:59:38;3.07;;;1.47;;
11191;SDS011;5652;48.406;10.820;2022-12-29T10:02:20;1.30;;;1.20;;
11191;SDS011;5652;48.406;10.820;2022-12-29T10:04:49;1.15;;;0.85;;
11191;SDS011;5652;48.406;10.820;2022-12-29T10:07:21;1.10;;;1.00;;
11191;SDS011;5652;48.406;10.820;2022-12-29T10:09:56;2.38;;;1.05;;
11191;SDS011;5652;48.406;10.820;2022-12-29T10:12:28;1.20;;;0.87;;
11191;SDS011;5652;48.406;10.820;2022-12-29T10:15:01;1.35;;;1.20;;
11191;SDS011;5652;48.406;10.820;2022-12-29T10:17:32;1.00;;;0.90;;
11191;SDS011;5652;48.406;10.820;2022-12-29T10:22:49;1.48;;;1.00;;
11191;SDS011;5652;48.406;10.820;2022-12-29T10:25:22;1.30;;;0.88;;
11191;SDS011;5652;48.406;10.820;2022-12-29T10:27:50;2.08;;;0.90;;
11191;SDS011;5652;48.406;10.820;2022-12-29T10:30:18;1.27;;;1.00;;
11191;SDS011;5652;48.406;10.820;2022-12-29T10:32:46;1.50;;;0.90;;
11191;SDS011;5652;48.406;10.820;2022-12-29T10:35:16;1.27;;;1.10;;
11191;SDS011;5652;48.406;10.820;2022-12-29T10:37:46;1.63;;;1.00;;
11191;SDS011;5652;48.406;10.820;2022-12-29T10:40:16;0.70;;;0.70;;
11191;SDS011;5652;48.406;10.820;2022-12-29T10:42:48;1.65;;;0.90;;
11191;SDS011;5652;48.406;10.820;2022-12-29T10:45:16;2.23;;;1.03;;
11191;SDS011;5652;48.406;10.820;2022-12-29T10:47:47;2.17;;;0.93;;
11191;SDS011;5652;48.406;10.820;2022-12-29T10:50:16;2.47;;;0.90;;
11191;SDS011;5652;48.406;10.820;2022-12-29T10:52:43;2.40;;;1.00;;
11191;SDS011;5652;48.406;10.820;2022-12-29T10:55:12;1.87;;;1.03;;
11191;SDS011;5652;48.406;10.820;2022-12-29T10:57:41;1.03;;;0.93;;
11191;SDS011;5652;48.406;10.820;2022-12-29T11:00:12;2.03;;;1.23;;
11191;SDS011;5652;48.406;10.820;2022-12-29T11:02:43;2.03;;;0.90;;
11191;SDS011;5652;48.406;10.820;2022-12-29T11:05:15;1.65;;;1.08;;
11191;SDS011;5652;48.406;10.820;2022-12-29T11:07:46;1.33;;;0.90;;
11191;SDS011;5652;48.406;10.820;2022-12-29T11:10:18;1.30;;;0.90;;
11191;SDS011;5652;48.406;10.820;2022-12-29T11:12:55;1.45;;;0.93;;
11191;SDS011;5652;48.406;10.820;2022-12-29T11:15:24;4.03;;;1.50;;
11191;SDS011;5652;48.406;10.820;2022-12-29T11:17:52;2.03;;;1.20;;
11191;SDS011;5652;48.406;10.820;2022-12-29T11:20:30;3.25;;;0.90;;
11191;SDS011;5652;48.406;10.820;2022-12-29T11:22:57;1.60;;;1.07;;
11191;SDS011;5652;48.406;10.820;2022-12-29T11:25:25;1.70;;;1.50;;
11191;SDS011;5652;48.406;10.820;2022-12-29T11:27:59;0.93;;;0.82;;
11191;SDS011;5652;48.406;10.820;2022-12-29T11:30:28;1.33;;;1.02;;
11191;SDS011;5652;48.406;10.820;2022-12-29T11:32:56;1.20;;;1.10;;
11191;SDS011;5652;48.406;10.820;2022-12-29T11:35:30;1.80;;;1.00;;
11191;SDS011;5652;48.406;10.820;2022-12-29T11:37:58;1.58;;;1.25;;
11191;SDS011;5652;48.406;10.820;2022-12-29T11:40:25;1.38;;;1.05;;
11191;SDS011;5652;48.406;10.820;2022-12-29T11:42:53;1.05;;;0.90;;
11191;SDS011;5652;48.406;10.820;2022-12-29T11:45:22;3.00;;;1.13;;
11191;SDS011;5652;48.406;10.820;2022-12-29T11:47:52;1.38;;;1.00;;
11191;SDS011;5652;48.406;10.820;2022-12-29T11:50:20;1.40;;;0.90;;
11191;SDS011;5652;48.406;10.820;2022-12-29T11:52:48;1.17;;;1.08;;
11191;SDS011;5652;48.406;10.820;2022-12-29T11:55:17;2.20;;;0.80;;
11191;SDS011;5652;48.406;10.820;2022-12-29T11:57:45;1.88;;;0.95;;
11191;SDS011;5652;48.406;10.820;2022-12-29T12:00:14;0.82;;;0.82;;
11191;SDS011;5652;48.406;10.820;2022-12-29T12:02:44;1.80;;;0.93;;
11191;SDS011;5652;48.406;10.820;2022-12-29T12:05:15;0.80;;;0.80;;
11191;SDS011;5652;48.406;10.820;2022-12-29T12:07:45;1.65;;;0.98;;
11191;SDS011;5652;48.406;10.820;2022-12-29T12:10:18;1.88;;;1.20;;
11191;SDS011;5652;48.406;10.820;2022-12-29T12:12:50;1.42;;;1.08;;
11191;SDS011;5652;48.406;10.820;2022-12-29T12:15:20;2.00;;;0.90;;
11191;SDS011;5652;48.406;10.820;2022-12-29T12:17:50;1.30;;;0.90;;
11191;SDS011;5652;48.406;10.820;2022-12-29T12:20:32;1.25;;;0.93;;
11191;SDS011;5652;48.406;10.820;2022-12-29T12:23:12;1.00;;;0.80;;
11191;SDS011;5652;48.406;10.820;2022-12-29T12:25:51;1.65;;;1.05;;
11191;SDS011;5652;48.406;10.820;2022-12-29T12:28:20;2.03;;;0.75;;
11191;SDS011;5652;48.406;10.820;2022-12-29T12:30:52;0.85;;;0.85;;
11191;SDS011;5652;48.406;10.820;2022-12-29T12:33:22;1.45;;;0.85;;
11191;SDS011;5652;48.406;10.820;2022-12-29T12:35:57;1.00;;;0.90;;
11191;SDS011;5652;48.406;10.820;2022-12-29T12:38:30;2.00;;;1.02;;
11191;SDS011;5652;48.406;10.820;2022-12-29T12:41:05;1.65;;;1.02;;
11191;SDS011;5652;48.406;10.820;2022-12-29T12:43:36;1.88;;;1.08;;
11191;SDS011;5652;48.406;10.820;2022-12-29T12:46:09;2.22;;;1.05;;
11191;SDS011;5652;48.406;10.820;2022-12-29T12:48:47;2.30;;;0.90;;
11191;SDS011;5652;48.406;10.820;2022-12-29T12:51:20;1.40;;;0.90;;
11191;SDS011;5652;48.406;10.820;2022-12-29T12:53:59;0.80;;;0.80;;
11191;SDS011;5652;48.406;10.820;2022-12-29T12:56:41;1.90;;;0.83;;
11191;SDS011;5652;48.406;10.820;2022-12-29T12:59:13;1.85;;;1.17;;
11191;SDS011;5652;48.406;10.820;2022-12-29T13:01:46;1.58;;;1.05;;
11191;SDS011;5652;48.406;10.820;2022-12-29T13:04:30;1.52;;;0.82;;
11191;SDS011;5652;48.406;10.820;2022-12-29T13:07:05;1.20;;;0.90;;
11191;SDS011;5652;48.406;10.820;2022-12-29T13:09:39;0.82;;;0.73;;
11191;SDS011;5652;48.406;10.820;2022-12-29T13:12:14;1.67;;;0.87;;
11191;SDS011;5652;48.406;10.820;2022-12-29T13:14:49;1.75;;;0.93;;
11191;SDS011;5652;48.406;10.820;2022-12-29T13:17:19;2.67;;;1.10;;
11191;SDS011;5652;48.406;10.820;2022-12-29T13:19:50;1.25;;;1.00;;
11191;SDS011;5652;48.406;10.820;2022-12-29T13:22:24;0.63;;;0.63;;
11191;SDS011;5652;48.406;10.820;2022-12-29T13:24:57;1.42;;;0.70;;
11191;SDS011;5652;48.406;10.820;2022-12-29T13:27:28;1.00;;;0.85;;
11191;SDS011;5652;48.406;10.820;2022-12-29T13:30:01;1.35;;;1.05;;
11191;SDS011;5652;48.406;10.820;2022-12-29T13:32:35;2.35;;;1.08;;
11191;SDS011;5652;48.406;10.820;2022-12-29T13:35:10;1.58;;;0.77;;
11191;SDS011;5652;48.406;10.820;2022-12-29T13:37:45;0.93;;;0.88;;
11191;SDS011;5652;48.406;10.820;2022-12-29T13:40:14;0.80;;;0.75;;
11191;SDS011;5652;48.406;10.820;2022-12-29T13:42:42;1.73;;;0.90;;
11191;SDS011;5652;48.406;10.820;2022-12-29T13:45:11;0.88;;;0.80;;
11191;SDS011;5652;48.406;10.820;2022-12-29T13:47:40;1.05;;;0.95;;
11191;SDS011;5652;48.406;10.820;2022-12-29T13:50:12;2.00;;;1.00;;
11191;SDS011;5652;48.406;10.820;2022-12-29T13:52:43;0.82;;;0.82;;
11191;SDS011;5652;48.406;10.820;2022-12-29T13:55:18;0.80;;;0.80;;
11191;SDS011;5652;48.406;10.820;2022-12-29T13:57:48;2.22;;;0.90;;
11191;SDS011;5652;48.406;10.820;2022-12-29T14:00:17;0.80;;;0.80;;
11191;SDS011;5652;48.406;10.820;2022-12-29T14:02:49;2.13;;;1.08;;
11191;SDS011;5652;48.406;10.820;2022-12-29T14:05:27;0.63;;;0.63;;
11191;SDS011;5652;48.406;10.820;2022-12-29T14:07:58;0.63;;;0.63;;
11191;SDS011;5652;48.406;10.820;2022-12-29T14:10:27;4.10;;;1.00;;
11191;SDS011;5652;48.406;10.820;2022-12-29T14:12:59;0.83;;;0.80;;
11191;SDS011;5652;48.406;10.820;2022-12-29T14:15:28;2.00;;;1.00;;
11191;SDS011;5652;48.406;10.820;2022-12-29T14:18:02;1.40;;;0.70;;
11191;SDS011;5652;48.406;10.820;2022-12-29T14:20:30;0.80;;;0.80;;
11191;SDS011;5652;48.406;10.820;2022-12-29T14:23:00;1.60;;;0.90;;
11191;SDS011;5652;48.406;10.820;2022-12-29T14:28:22;3.28;;;1.20;;
11191;SDS011;5652;48.406;10.820;2022-12-29T14:30:50;1.38;;;1.00;;
11191;SDS011;5652;48.406;10.820;2022-12-29T14:33:18;1.20;;;0.85;;
11191;SDS011;5652;48.406;10.820;2022-12-29T14:35:46;0.93;;;0.90;;
11191;SDS011;5652;48.406;10.820;2022-12-29T14:38:21;1.35;;;0.70;;
11191;SDS011;5652;48.406;10.820;2022-12-29T14:40:48;0.70;;;0.70;;
11191;SDS011;5652;48.406;10.820;2022-12-29T14:43:20;1.63;;;1.27;;
11191;SDS011;5652;48.406;10.820;2022-12-29T14:45:51;1.93;;;1.17;;
11191;SDS011;5652;48.406;10.820;2022-12-29T14:48:36;1.60;;;0.80;;
11191;SDS011;5652;48.406;10.820;2022-12-29T14:51:16;2.22;;;1.30;;
11191;SDS011;5652;48.406;10.820;2022-12-29T14:53:46;2.13;;;1.13;;
11191;SDS011;5652;48.406;10.820;2022-12-29T14:56:14;3.13;;;1.80;;
11191;SDS011;5652;48.406;10.820;2022-12-29T14:58:46;3.22;;;1.40;;
11191;SDS011;5652;48.406;10.820;2022-12-29T15:01:17;2.20;;;1.02;;
11191;SDS011;5652;48.406;10.820;2022-12-29T15:03:45;3.60;;;1.30;;
11191;SDS011;5652;48.406;10.820;2022-12-29T15:06:14;2.65;;;1.55;;
11191;SDS011;5652;48.406;10.820;2022-12-29T15:08:46;3.00;;;1.90;;
11191;SDS011;5652;48.406;10.820;2022-12-29T15:11:15;2.75;;;1.83;;
11191;SDS011;5652;48.406;10.820;2022-12-29T15:13:44;3.35;;;1.65;;
11191;SDS011;5652;48.406;10.820;2022-12-29T15:16:23;2.43;;;1.40;;